sensor_id;sensor_type;location;lat;lon;timestamp;pressure;altitude;pressure_sealevel;temperature;humidity
42247;BME280;27913;42.722;23.268;2023-03-20T00:03:49;95220.50;;;5.51;67.69
42247;BME280;27913;42.722;23.268;2023-03-20T00:06:33;95344.91;;;6.42;67.30
42247;BME280;27913;42.722;23.268;2023-03-20T00:08:59;95278.25;;;5.93;67.20
42247;BME280;27913;42.722;23.268;2023-03-20T00:11:32;95172.19;;;5.29;67.10
42247;BME280;27913;42.722;23.268;2023-03-20T00:14:01;95203.81;;;5.44;67.14
42247;BME280;27913;42.722;23.268;2023-03-20T00:16:42;95227.41;;;5.61;67.63
42247;BME280;27913;42.722;23.268;2023-03-20T00:19:15;95333.00;;;6.21;68.02
42247;BME280;27913;42.722;23.268;2023-03-20T00:21:42;95225.34;;;5.46;67.98
42247;BME280;27913;42.722;23.268;2023-03-20T00:24:07;95322.28;;;6.06;68.35
42247;BME280;27913;42.722;23.268;2023-03-20T00:26:34;95297.78;;;5.89;68.33
42247;BME280;27913;42.722;23.268;2023-03-20T00:29:01;95214.97;;;5.36;68.48
42247;BME280;27913;42.722;23.268;2023-03-20T00:31:29;95325.16;;;6.03;68.72
42247;BME280;27913;42.722;23.268;2023-03-20T00:33:57;95149.56;;;4.93;68.83
42247;BME280;27913;42.722;23.268;2023-03-20T00:36:23;95197.78;;;5.25;68.68
42247;BME280;27913;42.722;23.268;2023-03-20T00:38:49;95311.66;;;5.89;69.27
42247;BME280;27913;42.722;23.268;2023-03-20T00:44:24;95105.00;;;4.50;69.58
42247;BME280;27913;42.722;23.268;2023-03-20T00:46:53;95320.31;;;5.90;70.02
42247;BME280;27913;42.722;23.268;2023-03-20T00:49:32;95270.06;;;5.51;69.64
42247;BME280;27913;42.722;23.268;2023-03-20T00:51:59;95219.13;;;5.11;69.89
42247;BME280;27913;42.722;23.268;2023-03-20T00:54:25;95234.03;;;5.18;69.99
42247;BME280;27913;42.722;23.268;2023-03-20T00:56:57;95269.84;;;5.44;70.16
42247;BME280;27913;42.722;23.268;2023-03-20T00:59:26;95118.44;;;4.45;70.25
42247;BME280;27913;42.722;23.268;2023-03-20T01:01:52;95262.44;;;5.40;70.50
42247;BME280;27913;42.722;23.268;2023-03-20T01:04:19;95133.81;;;4.66;70.16
42247;BME280;27913;42.722;23.268;2023-03-20T01:06:45;95203.19;;;5.14;70.13
42247;BME280;27913;42.722;23.268;2023-03-20T01:09:11;95257.59;;;5.45;70.22
42247;BME280;27913;42.722;23.268;2023-03-20T01:11:38;95218.38;;;5.18;70.00
42247;BME280;27913;42.722;23.268;2023-03-20T01:14:05;95124.56;;;4.54;70.60
42247;BME280;27913;42.722;23.268;2023-03-20T01:16:37;95120.19;;;4.54;70.33
42247;BME280;27913;42.722;23.268;2023-03-20T01:19:02;95099.97;;;4.38;70.45
42247;BME280;27913;42.722;23.268;2023-03-20T01:21:29;95247.19;;;5.27;70.72
42247;BME280;27913;42.722;23.268;2023-03-20T01:23:54;95130.69;;;4.34;70.57
42247;BME280;27913;42.722;23.268;2023-03-20T01:26:25;95107.09;;;4.08;70.73
42247;BME280;27913;42.722;23.268;2023-03-20T01:28:51;95303.38;;;5.39;71.01
42247;BME280;27913;42.722;23.268;2023-03-20T01:31:17;95307.47;;;5.42;70.94
42247;BME280;27913;42.722;23.268;2023-03-20T01:33:43;95308.69;;;5.48;70.98
42247;BME280;27913;42.722;23.268;2023-03-20T01:36:11;95257.47;;;5.00;70.92
42247;BME280;27913;42.722;23.268;2023-03-20T01:38:37;95238.72;;;4.97;71.09
42247;BME280;27913;42.722;23.268;2023-03-20T01:41:23;95313.56;;;5.32;70.79
42247;BME280;27913;42.722;23.268;2023-03-20T01:43:50;95313.03;;;5.29;70.81
42247;BME280;27913;42.722;23.268;2023-03-20T01:51:27;95323.13;;;5.42;71.19
42247;BME280;27913;42.722;23.268;2023-03-20T01:53:56;95306.94;;;5.38;71.33
42247;BME280;27913;42.722;23.268;2023-03-20T01:56:23;95308.00;;;5.46;71.35
42247;BME280;27913;42.722;23.268;2023-03-20T01:58:54;95159.56;;;4.51;71.22
42247;BME280;27913;42.722;23.268;2023-03-20T02:01:21;95126.09;;;4.28;71.33
42247;BME280;27913;42.722;23.268;2023-03-20T02:03:49;95070.50;;;3.91;71.25
42247;BME280;27913;42.722;23.268;2023-03-20T02:06:17;95090.16;;;4.04;71.16
42247;BME280;27913;42.722;23.268;2023-03-20T02:08:47;95298.44;;;5.36;71.37
42247;BME280;27913;42.722;23.268;2023-03-20T02:11:14;95131.28;;;4.28;71.38
42247;BME280;27913;42.722;23.268;2023-03-20T02:13:41;95270.53;;;5.18;71.53
42247;BME280;27913;42.722;23.268;2023-03-20T02:16:14;95302.88;;;5.26;71.82
42247;BME280;27913;42.722;23.268;2023-03-20T02:18:44;95189.69;;;4.54;71.41
42247;BME280;27913;42.722;23.268;2023-03-20T02:21:37;95263.94;;;4.96;71.91
42247;BME280;27913;42.722;23.268;2023-03-20T02:32:35;95273.50;;;4.77;71.73
42247;BME280;27913;42.722;23.268;2023-03-20T02:38:22;95305.63;;;5.06;72.13
42247;BME280;27913;42.722;23.268;2023-03-20T02:40:57;95262.63;;;4.82;71.97
42247;BME280;27913;42.722;23.268;2023-03-20T02:46:19;95264.19;;;4.75;72.60
42247;BME280;27913;42.722;23.268;2023-03-20T02:49:04;95300.72;;;4.93;72.89
42247;BME280;27913;42.722;23.268;2023-03-20T02:51:35;95263.94;;;4.68;72.79
42247;BME280;27913;42.722;23.268;2023-03-20T03:05:03;95226.84;;;4.08;73.62
42247;BME280;27913;42.722;23.268;2023-03-20T03:07:32;95302.47;;;4.64;73.63
42247;BME280;27913;42.722;23.268;2023-03-20T03:10:04;95209.16;;;4.11;73.21
42247;BME280;27913;42.722;23.268;2023-03-20T03:12:35;95245.75;;;4.10;74.01
42247;BME280;27913;42.722;23.268;2023-03-20T03:15:06;95291.97;;;4.56;74.07
42247;BME280;27913;42.722;23.268;2023-03-20T03:17:36;95297.50;;;4.71;73.57
42247;BME280;27913;42.722;23.268;2023-03-20T03:20:07;95295.34;;;4.66;73.14
42247;BME280;27913;42.722;23.268;2023-03-20T03:22:34;95300.63;;;4.46;73.83
42247;BME280;27913;42.722;23.268;2023-03-20T03:25:00;95298.28;;;4.43;74.26
42247;BME280;27913;42.722;23.268;2023-03-20T03:27:38;95300.22;;;4.51;74.22
42247;BME280;27913;42.722;23.268;2023-03-20T03:30:11;95142.75;;;3.59;73.66
42247;BME280;27913;42.722;23.268;2023-03-20T03:32:46;95289.94;;;4.50;73.77
42247;BME280;27913;42.722;23.268;2023-03-20T03:35:18;95295.81;;;4.52;73.90
42247;BME280;27913;42.722;23.268;2023-03-20T03:40:31;95299.91;;;4.54;74.08
42247;BME280;27913;42.722;23.268;2023-03-20T03:43:13;95215.25;;;4.02;74.06
42247;BME280;27913;42.722;23.268;2023-03-20T03:46:05;95290.72;;;4.60;73.88
42247;BME280;27913;42.722;23.268;2023-03-20T03:48:40;95234.75;;;4.26;73.54
42247;BME280;27913;42.722;23.268;2023-03-20T03:51:11;95243.09;;;4.30;73.75
42247;BME280;27913;42.722;23.268;2023-03-20T03:53:46;95284.28;;;4.54;74.03
42247;BME280;27913;42.722;23.268;2023-03-20T03:56:15;95291.66;;;4.59;73.81
42247;BME280;27913;42.722;23.268;2023-03-20T03:58:47;95231.75;;;4.21;74.02
42247;BME280;27913;42.722;23.268;2023-03-20T04:01:16;95284.97;;;4.56;73.79
42247;BME280;27913;42.722;23.268;2023-03-20T04:03:47;95283.59;;;4.52;74.04
42247;BME280;27913;42.722;23.268;2023-03-20T04:06:15;95289.22;;;4.57;74.54
42247;BME280;27913;42.722;23.268;2023-03-20T04:08:42;95287.56;;;4.56;74.31
42247;BME280;27913;42.722;23.268;2023-03-20T04:11:19;95157.06;;;3.83;74.30
42247;BME280;27913;42.722;23.268;2023-03-20T04:13:46;95274.00;;;4.53;74.41
42247;BME280;27913;42.722;23.268;2023-03-20T04:16:13;95275.41;;;4.47;73.99
42247;BME280;27913;42.722;23.268;2023-03-20T04:18:39;95222.31;;;4.10;74.10
42247;BME280;27913;42.722;23.268;2023-03-20T04:21:05;95052.91;;;3.17;73.90
42247;BME280;27913;42.722;23.268;2023-03-20T04:23:31;95271.56;;;4.51;74.05
42247;BME280;27913;42.722;23.268;2023-03-20T04:25:57;95270.59;;;4.52;73.82
42247;BME280;27913;42.722;23.268;2023-03-20T04:28:22;95279.38;;;4.51;73.59
42247;BME280;27913;42.722;23.268;2023-03-20T04:30:56;95266.78;;;4.37;73.94
42247;BME280;27913;42.722;23.268;2023-03-20T04:33:22;95181.72;;;3.79;73.64
42247;BME280;27913;42.722;23.268;2023-03-20T04:35:48;95169.41;;;3.71;73.65
42247;BME280;27913;42.722;23.268;2023-03-20T04:38:16;95094.34;;;3.19;73.77
42247;BME280;27913;42.722;23.268;2023-03-20T04:40:43;95228.53;;;3.89;74.06
42247;BME280;27913;42.722;23.268;2023-03-20T04:43:08;95291.78;;;4.19;74.54
42247;BME280;27913;42.722;23.268;2023-03-20T04:45:34;95191.47;;;3.37;74.87
42247;BME280;27913;42.722;23.268;2023-03-20T04:47:59;95239.94;;;3.58;75.01
42247;BME280;27913;42.722;23.268;2023-03-20T04:50:26;95310.84;;;3.90;75.19
42247;BME280;27913;42.722;23.268;2023-03-20T04:52:51;95276.47;;;3.57;76.25
42247;BME280;27913;42.722;23.268;2023-03-20T04:55:17;95303.88;;;3.81;76.40
42247;BME280;27913;42.722;23.268;2023-03-20T04:57:42;95292.09;;;3.77;76.58
42247;BME280;27913;42.722;23.268;2023-03-20T05:00:08;95201.06;;;3.27;76.53
42247;BME280;27913;42.722;23.268;2023-03-20T05:02:35;95321.38;;;4.08;76.64
42247;BME280;27913;42.722;23.268;2023-03-20T05:05:01;95273.19;;;3.84;76.58
42247;BME280;27913;42.722;23.268;2023-03-20T05:07:26;95120.06;;;2.92;76.28
42247;BME280;27913;42.722;23.268;2023-03-20T05:09:52;95175.34;;;3.24;76.30
42247;BME280;27913;42.722;23.268;2023-03-20T05:12:17;95316.16;;;4.28;76.26
42247;BME280;27913;42.722;23.268;2023-03-20T05:14:43;95317.09;;;4.27;76.20
42247;BME280;27913;42.722;23.268;2023-03-20T05:17:08;95183.13;;;3.44;75.99
42247;BME280;27913;42.722;23.268;2023-03-20T05:19:34;95156.19;;;3.35;75.55
42247;BME280;27913;42.722;23.268;2023-03-20T05:21:59;95315.75;;;4.13;76.26
42247;BME280;27913;42.722;23.268;2023-03-20T05:24:25;95274.41;;;3.80;76.87
42247;BME280;27913;42.722;23.268;2023-03-20T05:26:53;95323.44;;;4.25;76.83
42247;BME280;27913;42.722;23.268;2023-03-20T05:29:18;95317.38;;;4.34;76.80
42247;BME280;27913;42.722;23.268;2023-03-20T05:31:44;95221.84;;;3.86;76.48
42247;BME280;27913;42.722;23.268;2023-03-20T05:34:10;95234.41;;;4.01;75.98
42247;BME280;27913;42.722;23.268;2023-03-20T05:36:35;95323.75;;;4.59;76.66
42247;BME280;27913;42.722;23.268;2023-03-20T05:39:00;95227.38;;;4.11;76.29
42247;BME280;27913;42.722;23.268;2023-03-20T05:41:26;95252.16;;;4.26;75.96
42247;BME280;27913;42.722;23.268;2023-03-20T05:43:51;95340.31;;;4.68;76.42
42247;BME280;27913;42.722;23.268;2023-03-20T05:46:17;95333.34;;;4.69;76.95
42247;BME280;27913;42.722;23.268;2023-03-20T05:48:42;95307.59;;;4.56;76.37
42247;BME280;27913;42.722;23.268;2023-03-20T05:51:08;95166.81;;;3.71;76.17
42247;BME280;27913;42.722;23.268;2023-03-20T05:53:34;95318.41;;;4.61;76.03
42247;BME280;27913;42.722;23.268;2023-03-20T05:55:59;95329.47;;;4.73;76.39
42247;BME280;27913;42.722;23.268;2023-03-20T05:58:25;95338.81;;;4.76;75.77
42247;BME280;27913;42.722;23.268;2023-03-20T06:00:50;95277.59;;;4.42;75.66
42247;BME280;27913;42.722;23.268;2023-03-20T06:03:16;95273.38;;;4.41;75.77
42247;BME280;27913;42.722;23.268;2023-03-20T06:05:43;95337.53;;;4.80;76.04
42247;BME280;27913;42.722;23.268;2023-03-20T06:08:08;95335.59;;;4.92;76.31
42247;BME280;27913;42.722;23.268;2023-03-20T06:10:34;95234.31;;;4.41;76.32
42247;BME280;27913;42.722;23.268;2023-03-20T06:12:59;95256.72;;;4.52;76.44
42247;BME280;27913;42.722;23.268;2023-03-20T06:15:28;95336.94;;;4.96;75.34
42247;BME280;27913;42.722;23.268;2023-03-20T06:17:55;95338.00;;;5.03;74.59
42247;BME280;27913;42.722;23.268;2023-03-20T06:20:23;95326.47;;;5.06;73.49
42247;BME280;27913;42.722;23.268;2023-03-20T06:22:48;95273.50;;;4.77;73.19
42247;BME280;27913;42.722;23.268;2023-03-20T06:25:14;95207.59;;;4.39;73.74
42247;BME280;27913;42.722;23.268;2023-03-20T06:27:40;95334.41;;;5.14;73.10
42247;BME280;27913;42.722;23.268;2023-03-20T06:30:06;95242.31;;;4.57;73.54
42247;BME280;27913;42.722;23.268;2023-03-20T06:32:31;95318.28;;;5.01;74.48
42247;BME280;27913;42.722;23.268;2023-03-20T06:34:57;95337.81;;;5.15;74.20
42247;BME280;27913;42.722;23.268;2023-03-20T06:37:23;95337.16;;;5.13;74.41
42247;BME280;27913;42.722;23.268;2023-03-20T06:39:48;95331.03;;;5.22;75.00
42247;BME280;27913;42.722;23.268;2023-03-20T06:42:14;95278.19;;;5.02;74.18
42247;BME280;27913;42.722;23.268;2023-03-20T06:44:41;95336.00;;;5.43;73.60
42247;BME280;27913;42.722;23.268;2023-03-20T06:47:06;95327.69;;;5.58;73.30
42247;BME280;27913;42.722;23.268;2023-03-20T06:49:32;95324.84;;;5.70;73.23
42247;BME280;27913;42.722;23.268;2023-03-20T06:51:57;95333.44;;;5.80;72.11
42247;BME280;27913;42.722;23.268;2023-03-20T06:54:24;95330.09;;;5.88;71.75
42247;BME280;27913;42.722;23.268;2023-03-20T06:56:50;95152.78;;;4.87;71.79
42247;BME280;27913;42.722;23.268;2023-03-20T06:59:16;95290.88;;;5.79;71.19
42247;BME280;27913;42.722;23.268;2023-03-20T07:01:42;95320.69;;;6.13;71.33
42247;BME280;27913;42.722;23.268;2023-03-20T07:04:08;95252.16;;;5.75;71.25
42247;BME280;27913;42.722;23.268;2023-03-20T07:06:33;95098.78;;;4.79;70.79
42247;BME280;27913;42.722;23.268;2023-03-20T07:08:59;95278.97;;;6.03;71.23
42247;BME280;27913;42.722;23.268;2023-03-20T07:11:26;95209.28;;;5.77;71.59
42247;BME280;27913;42.722;23.268;2023-03-20T07:13:52;95266.56;;;6.24;71.19
42247;BME280;27913;42.722;23.268;2023-03-20T07:16:18;95316.78;;;6.62;70.92
42247;BME280;27913;42.722;23.268;2023-03-20T07:18:44;95242.78;;;6.27;70.85
42247;BME280;27913;42.722;23.268;2023-03-20T07:21:18;95296.31;;;6.49;71.49
42247;BME280;27913;42.722;23.268;2023-03-20T07:23:44;95259.97;;;6.38;71.02
42247;BME280;27913;42.722;23.268;2023-03-20T07:26:10;95316.88;;;6.79;71.04
42247;BME280;27913;42.722;23.268;2023-03-20T07:28:35;95320.84;;;6.83;69.97
42247;BME280;27913;42.722;23.268;2023-03-20T07:31:01;95321.47;;;6.85;70.01
42247;BME280;27913;42.722;23.268;2023-03-20T07:33:26;95174.19;;;5.98;70.21
42247;BME280;27913;42.722;23.268;2023-03-20T07:35:52;95323.00;;;6.96;70.35
42247;BME280;27913;42.722;23.268;2023-03-20T07:38:19;95320.22;;;6.98;70.08
42247;BME280;27913;42.722;23.268;2023-03-20T07:40:44;95298.81;;;6.94;69.98
42247;BME280;27913;42.722;23.268;2023-03-20T07:43:10;95312.91;;;7.10;70.12
42247;BME280;27913;42.722;23.268;2023-03-20T07:45:35;95071.38;;;5.64;70.02
42247;BME280;27913;42.722;23.268;2023-03-20T07:48:01;95259.56;;;6.86;69.44
42247;BME280;27913;42.722;23.268;2023-03-20T07:50:26;95311.66;;;7.22;69.71
42247;BME280;27913;42.722;23.268;2023-03-20T07:52:51;95310.38;;;7.27;69.51
42247;BME280;27913;42.722;23.268;2023-03-20T07:55:17;95304.38;;;7.34;69.82
42247;BME280;27913;42.722;23.268;2023-03-20T07:57:43;95231.31;;;6.98;69.85
42247;BME280;27913;42.722;23.268;2023-03-20T08:00:09;95272.81;;;7.36;69.81
42247;BME280;27913;42.722;23.268;2023-03-20T08:02:35;95209.09;;;6.94;68.89
42247;BME280;27913;42.722;23.268;2023-03-20T08:05:00;95310.81;;;7.65;69.08
42247;BME280;27913;42.722;23.268;2023-03-20T08:07:26;95304.78;;;7.73;69.13
42247;BME280;27913;42.722;23.268;2023-03-20T08:09:54;95309.84;;;7.83;69.19
42247;BME280;27913;42.722;23.268;2023-03-20T08:12:19;95148.16;;;7.01;68.66
42247;BME280;27913;42.722;23.268;2023-03-20T08:14:45;95243.25;;;7.60;67.69
42247;BME280;27913;42.722;23.268;2023-03-20T08:17:11;95291.38;;;8.01;67.42
42247;BME280;27913;42.722;23.268;2023-03-20T08:19:36;95310.50;;;8.10;67.53
42247;BME280;27913;42.722;23.268;2023-03-20T08:22:02;95307.09;;;8.09;66.30
42247;BME280;27913;42.722;23.268;2023-03-20T08:24:29;95143.91;;;7.09;66.04
42247;BME280;27913;42.722;23.268;2023-03-20T08:26:54;95232.09;;;7.67;66.20
42247;BME280;27913;42.722;23.268;2023-03-20T08:29:20;95283.03;;;8.06;66.19
42247;BME280;27913;42.722;23.268;2023-03-20T08:31:45;95114.81;;;7.04;66.07
42247;BME280;27913;42.722;23.268;2023-03-20T08:34:11;95300.03;;;8.27;65.56
42247;BME280;27913;42.722;23.268;2023-03-20T08:36:37;95314.59;;;8.38;64.53
42247;BME280;27913;42.722;23.268;2023-03-20T08:39:04;95225.22;;;7.91;64.35
42247;BME280;27913;42.722;23.268;2023-03-20T08:41:31;95090.31;;;7.13;63.19
42247;BME280;27913;42.722;23.268;2023-03-20T08:43:57;95083.75;;;7.09;62.92
42247;BME280;27913;42.722;23.268;2023-03-20T08:46:23;95305.78;;;8.55;63.10
42247;BME280;27913;42.722;23.268;2023-03-20T08:48:48;95289.53;;;8.52;62.17
42247;BME280;27913;42.722;23.268;2023-03-20T08:51:14;95309.00;;;8.74;61.42
42247;BME280;27913;42.722;23.268;2023-03-20T08:53:40;95212.56;;;8.28;61.99
42247;BME280;27913;42.722;23.268;2023-03-20T08:56:06;95253.63;;;8.52;61.83
42247;BME280;27913;42.722;23.268;2023-03-20T08:58:32;95299.28;;;8.91;61.91
42247;BME280;27913;42.722;23.268;2023-03-20T09:01:03;95290.56;;;8.99;61.58
42247;BME280;27913;42.722;23.268;2023-03-20T09:03:29;95294.16;;;9.06;61.70
42247;BME280;27913;42.722;23.268;2023-03-20T09:05:56;95214.63;;;8.66;61.90
42247;BME280;27913;42.722;23.268;2023-03-20T09:08:21;95289.00;;;9.22;62.15
42247;BME280;27913;42.722;23.268;2023-03-20T09:10:47;95244.75;;;9.10;62.13
42247;BME280;27913;42.722;23.268;2023-03-20T09:13:13;95286.56;;;9.43;60.98
42247;BME280;27913;42.722;23.268;2023-03-20T09:15:39;95186.13;;;9.03;61.17
42247;BME280;27913;42.722;23.268;2023-03-20T09:18:04;95277.13;;;9.66;61.19
42247;BME280;27913;42.722;23.268;2023-03-20T09:20:30;95287.09;;;9.71;59.86
42247;BME280;27913;42.722;23.268;2023-03-20T09:22:56;95210.44;;;9.43;59.40
42247;BME280;27913;42.722;23.268;2023-03-20T09:25:21;95187.47;;;9.46;58.70
42247;BME280;27913;42.722;23.268;2023-03-20T09:27:50;95195.75;;;9.58;58.82
42247;BME280;27913;42.722;23.268;2023-03-20T09:30:16;95221.34;;;9.79;58.40
42247;BME280;27913;42.722;23.268;2023-03-20T09:32:41;95259.53;;;10.13;58.23
42247;BME280;27913;42.722;23.268;2023-03-20T09:35:07;95199.75;;;9.92;57.34
42247;BME280;27913;42.722;23.268;2023-03-20T09:37:33;95257.00;;;10.35;57.81
42247;BME280;27913;42.722;23.268;2023-03-20T09:40:00;95170.69;;;9.94;57.09
42247;BME280;27913;42.722;23.268;2023-03-20T09:42:52;95173.31;;;10.09;56.36
42247;BME280;27913;42.722;23.268;2023-03-20T09:45:57;95192.72;;;10.23;56.06
42247;BME280;27913;42.722;23.268;2023-03-20T09:51:20;95223.78;;;10.73;54.28
42247;BME280;27913;42.722;23.268;2023-03-20T09:53:55;95112.34;;;10.13;54.40
42247;BME280;27913;42.722;23.268;2023-03-20T09:56:27;95213.59;;;10.85;54.07
42247;BME280;27913;42.722;23.268;2023-03-20T09:58:57;95203.44;;;10.97;54.72
42247;BME280;27913;42.722;23.268;2023-03-20T10:04:08;95109.72;;;10.59;53.74
42247;BME280;27913;42.722;23.268;2023-03-20T10:06:34;95010.06;;;10.12;53.08
42247;BME280;27913;42.722;23.268;2023-03-20T10:09:01;95186.72;;;11.42;52.95
42247;BME280;27913;42.722;23.268;2023-03-20T10:14:57;95148.38;;;11.39;52.00
42247;BME280;27913;42.722;23.268;2023-03-20T10:20:43;95112.28;;;11.33;50.74
42247;BME280;27913;42.722;23.268;2023-03-20T10:23:35;95168.03;;;11.87;50.57
42247;BME280;27913;42.722;23.268;2023-03-20T10:26:12;95178.00;;;11.92;49.46
42247;BME280;27913;42.722;23.268;2023-03-20T10:28:58;95163.66;;;11.94;49.37
42247;BME280;27913;42.722;23.268;2023-03-20T10:39:45;95144.50;;;12.43;48.47
42247;BME280;27913;42.722;23.268;2023-03-20T10:42:32;95105.06;;;12.28;46.68
42247;BME280;27913;42.722;23.268;2023-03-20T10:45:07;95041.63;;;12.01;47.21
42247;BME280;27913;42.722;23.268;2023-03-20T10:47:40;95134.44;;;12.67;47.37
42247;BME280;27913;42.722;23.268;2023-03-20T10:50:15;95100.31;;;12.59;46.45
42247;BME280;27913;42.722;23.268;2023-03-20T10:52:43;95126.00;;;12.85;46.53
42247;BME280;27913;42.722;23.268;2023-03-20T10:55:33;95125.81;;;13.00;45.43
42247;BME280;27913;42.722;23.268;2023-03-20T10:58:02;95112.88;;;13.12;44.68
42247;BME280;27913;42.722;23.268;2023-03-20T11:00:30;95046.38;;;12.68;45.54
42247;BME280;27913;42.722;23.268;2023-03-20T11:02:55;95036.84;;;12.67;45.65
42247;BME280;27913;42.722;23.268;2023-03-20T11:05:27;95022.44;;;12.76;44.57
42247;BME280;27913;42.722;23.268;2023-03-20T11:08:05;95067.19;;;13.12;44.86
42247;BME280;27913;42.722;23.268;2023-03-20T11:10:33;95044.81;;;13.14;44.64
42247;BME280;27913;42.722;23.268;2023-03-20T11:13:27;94892.50;;;12.27;43.44
42247;BME280;27913;42.722;23.268;2023-03-20T11:15:55;95085.09;;;13.71;42.58
42247;BME280;27913;42.722;23.268;2023-03-20T11:18:24;95011.50;;;13.34;41.80
42247;BME280;27913;42.722;23.268;2023-03-20T11:20:53;95084.25;;;13.91;42.15
42247;BME280;27913;42.722;23.268;2023-03-20T11:23:24;95085.50;;;13.95;41.61
42247;BME280;27913;42.722;23.268;2023-03-20T11:28:36;94908.13;;;13.30;40.05
42247;BME280;27913;42.722;23.268;2023-03-20T11:31:15;95016.91;;;14.07;40.89
42247;BME280;27913;42.722;23.268;2023-03-20T11:33:50;95070.50;;;14.41;40.71
42247;BME280;27913;42.722;23.268;2023-03-20T11:36:24;95011.81;;;14.12;40.95
42247;BME280;27913;42.722;23.268;2023-03-20T11:38:51;95053.41;;;14.44;39.44
42247;BME280;27913;42.722;23.268;2023-03-20T11:45:15;94863.50;;;13.74;36.29
42247;BME280;27913;42.722;23.268;2023-03-20T11:47:41;95035.44;;;14.99;37.01
42247;BME280;27913;42.722;23.268;2023-03-20T11:50:38;95026.25;;;15.01;37.71
42247;BME280;27913;42.722;23.268;2023-03-20T11:53:25;94887.53;;;14.44;37.04
42247;BME280;27913;42.722;23.268;2023-03-20T11:56:11;94906.09;;;14.70;38.04
42247;BME280;27913;42.722;23.268;2023-03-20T12:01:47;95004.16;;;15.58;36.42
42247;BME280;27913;42.722;23.268;2023-03-20T12:04:29;94997.69;;;15.54;35.51
42247;BME280;27913;42.722;23.268;2023-03-20T12:09:11;94924.28;;;15.36;34.49
42247;BME280;27913;42.722;23.268;2023-03-20T12:16:29;94847.97;;;15.45;33.08
42247;BME280;27913;42.722;23.268;2023-03-20T12:19:19;94984.44;;;16.48;32.50
42247;BME280;27913;42.722;23.268;2023-03-20T12:21:48;94972.69;;;16.56;32.16
42247;BME280;27913;42.722;23.268;2023-03-20T12:24:28;94905.34;;;16.26;32.37
42247;BME280;27913;42.722;23.268;2023-03-20T12:27:22;94980.22;;;17.02;31.34
42247;BME280;27913;42.722;23.268;2023-03-20T12:30:09;94959.19;;;17.00;30.80
42247;BME280;27913;42.722;23.268;2023-03-20T12:32:41;94974.25;;;17.19;31.03
42247;BME280;27913;42.722;23.268;2023-03-20T12:35:16;94939.44;;;17.08;30.86
42247;BME280;27913;42.722;23.268;2023-03-20T12:37:43;94913.44;;;16.86;29.81
42247;BME280;27913;42.722;23.268;2023-03-20T12:40:15;94918.34;;;17.13;29.43
42247;BME280;27913;42.722;23.268;2023-03-20T12:45:20;94919.03;;;17.33;30.58
42247;BME280;27913;42.722;23.268;2023-03-20T12:48:11;94945.84;;;17.67;30.92
42247;BME280;27913;42.722;23.268;2023-03-20T12:50:44;94872.38;;;17.25;28.75
42247;BME280;27913;42.722;23.268;2023-03-20T13:01:19;94866.00;;;17.38;27.98
42247;BME280;27913;42.722;23.268;2023-03-20T13:06:50;94923.38;;;17.75;27.65
42247;BME280;27913;42.722;23.268;2023-03-20T13:12:13;94923.44;;;18.04;27.49
42247;BME280;27913;42.722;23.268;2023-03-20T13:14:56;94891.97;;;18.01;27.48
42247;BME280;27913;42.722;23.268;2023-03-20T13:17:35;94865.75;;;17.93;27.76
42247;BME280;27913;42.722;23.268;2023-03-20T13:20:25;94879.66;;;18.12;26.72
42247;BME280;27913;42.722;23.268;2023-03-20T13:28:29;94810.94;;;17.92;27.64
42247;BME280;27913;42.722;23.268;2023-03-20T13:36:24;94864.13;;;18.50;26.38
42247;BME280;27913;42.722;23.268;2023-03-20T13:39:17;94887.94;;;18.57;26.38
42247;BME280;27913;42.722;23.268;2023-03-20T13:41:45;94823.22;;;18.22;26.34
42247;BME280;27913;42.722;23.268;2023-03-20T13:44:13;94843.69;;;18.21;26.50
42247;BME280;27913;42.722;23.268;2023-03-20T13:46:42;94881.16;;;18.49;27.00
42247;BME280;27913;42.722;23.268;2023-03-20T13:49:18;94843.59;;;18.16;26.58
42247;BME280;27913;42.722;23.268;2023-03-20T13:51:56;94878.56;;;18.37;27.20
42247;BME280;27913;42.722;23.268;2023-03-20T13:54:48;94875.66;;;18.39;27.27
42247;BME280;27913;42.722;23.268;2023-03-20T13:59:54;94877.44;;;18.50;27.32
42247;BME280;27913;42.722;23.268;2023-03-20T14:02:33;94858.31;;;18.36;27.01
42247;BME280;27913;42.722;23.268;2023-03-20T14:05:13;94755.56;;;17.89;27.06
42247;BME280;27913;42.722;23.268;2023-03-20T14:07:45;94845.59;;;18.55;26.41
42247;BME280;27913;42.722;23.268;2023-03-20T14:12:55;94844.84;;;18.60;26.11
42247;BME280;27913;42.722;23.268;2023-03-20T14:15:25;94845.25;;;18.69;25.82
42247;BME280;27913;42.722;23.268;2023-03-20T14:17:51;94802.88;;;18.50;26.41
42247;BME280;27913;42.722;23.268;2023-03-20T14:20:34;94798.03;;;18.47;25.60
42247;BME280;27913;42.722;23.268;2023-03-20T14:23:01;94797.88;;;18.54;25.99
42247;BME280;27913;42.722;23.268;2023-03-20T14:25:38;94744.16;;;18.22;25.34
42247;BME280;27913;42.722;23.268;2023-03-20T14:30:49;94805.47;;;18.79;24.79
42247;BME280;27913;42.722;23.268;2023-03-20T14:38:34;94821.47;;;19.19;24.85
42247;BME280;27913;42.722;23.268;2023-03-20T14:43:51;94823.13;;;19.20;24.68
42247;BME280;27913;42.722;23.268;2023-03-20T14:46:50;94781.84;;;19.05;24.68
42247;BME280;27913;42.722;23.268;2023-03-20T14:49:44;94824.72;;;19.21;23.98
42247;BME280;27913;42.722;23.268;2023-03-20T14:52:33;94825.09;;;19.30;32.82
42247;BME280;27913;42.722;23.268;2023-03-20T14:57:39;94805.75;;;19.17;28.48
42247;BME280;27913;42.722;23.268;2023-03-20T15:00:19;94741.53;;;18.79;27.13
42247;BME280;27913;42.722;23.268;2023-03-20T15:02:49;94821.09;;;19.27;26.17
42247;BME280;27913;42.722;23.268;2023-03-20T15:05:30;94778.91;;;18.85;23.21
42247;BME280;27913;42.722;23.268;2023-03-20T15:08:05;94822.34;;;18.85;23.28
42247;BME280;27913;42.722;23.268;2023-03-20T15:10:34;94825.31;;;18.71;23.82
42247;BME280;27913;42.722;23.268;2023-03-20T15:13:04;94802.50;;;18.58;23.85
42247;BME280;27913;42.722;23.268;2023-03-20T15:15:31;94782.66;;;18.49;23.11